Crumley Xing, Indiana
Current Conditions -  °F | °C
As of 8:53 AM on Friday 19 Dec 2014 (Local Time) from KMIE Reporting Station
Overcast Overcast  
Wind Chill: 26°   Ceiling: 2500
Heat Index: 26°   Visibility: 7mi
Dew Point: 21°   Wind: 3mph
Humidity: 81%   Direction: 300°WNW
Pressure: 30.26"   Gusts: NA
Location:  40.3769°N, 85.2018°W
Report Text: KMIE 191353Z 30003KT 7SM OVC025 M03/M06 A3026 RMK AO2 SLP257 T10331061
Loading
Personal Weather Stations






























Interactive Weather Map New forecast layout! Learn more

10-Day Weather Forecast

Advertisements
Track Severe Weather on mobile